sensor_id;sensor_type;location;lat;lon;timestamp;pressure;altitude;pressure_sealevel;temperature;humidity
49835;BME280;35729;52.090;13.162;2023-08-31T00:00:50;100011.25;;;14.60;80.23
49835;BME280;35729;52.090;13.162;2023-08-31T00:03:19;100022.69;;;14.61;80.40
49835;BME280;35729;52.090;13.162;2023-08-31T00:05:48;100020.09;;;14.59;80.67
49835;BME280;35729;52.090;13.162;2023-08-31T00:08:19;100024.53;;;14.59;80.67
49835;BME280;35729;52.090;13.162;2023-08-31T00:10:55;100019.47;;;14.54;80.97
49835;BME280;35729;52.090;13.162;2023-08-31T00:13:24;100029.03;;;14.57;80.84
49835;BME280;35729;52.090;13.162;2023-08-31T00:15:54;100029.03;;;14.57;81.27
49835;BME280;35729;52.090;13.162;2023-08-31T00:18:25;100016.91;;;14.53;81.01
49835;BME280;35729;52.090;13.162;2023-08-31T00:20:54;100024.75;;;14.54;81.31
49835;BME280;35729;52.090;13.162;2023-08-31T00:23:26;100023.91;;;14.54;81.60
49835;BME280;35729;52.090;13.162;2023-08-31T00:25:54;100018.63;;;14.54;81.42
49835;BME280;35729;52.090;13.162;2023-08-31T00:28:22;100004.19;;;14.43;81.60
49835;BME280;35729;52.090;13.162;2023-08-31T00:30:52;100030.03;;;14.54;81.74
49835;BME280;35729;52.090;13.162;2023-08-31T00:33:21;100033.53;;;14.55;81.85
49835;BME280;35729;52.090;13.162;2023-08-31T00:35:49;100041.47;;;14.55;81.87
49835;BME280;35729;52.090;13.162;2023-08-31T00:38:17;100045.03;;;14.54;82.00
49835;BME280;35729;52.090;13.162;2023-08-31T00:40:48;100044.16;;;14.53;81.97
49835;BME280;35729;52.090;13.162;2023-08-31T00:43:17;100042.53;;;14.50;82.01
49835;BME280;35729;52.090;13.162;2023-08-31T00:45:47;100040.84;;;14.49;82.19
49835;BME280;35729;52.090;13.162;2023-08-31T00:48:17;100040.06;;;14.47;82.34
49835;BME280;35729;52.090;13.162;2023-08-31T00:50:46;100043.63;;;14.46;82.67
49835;BME280;35729;52.090;13.162;2023-08-31T00:53:16;100049.81;;;14.45;82.63
49835;BME280;35729;52.090;13.162;2023-08-31T00:55:45;100053.63;;;14.40;83.02
49835;BME280;35729;52.090;13.162;2023-08-31T00:58:16;100052.75;;;14.39;83.21
49835;BME280;35729;52.090;13.162;2023-08-31T01:00:57;100054.91;;;14.31;83.38
49835;BME280;35729;52.090;13.162;2023-08-31T01:03:34;100056.13;;;14.24;84.36
49835;BME280;35729;52.090;13.162;2023-08-31T01:06:11;100058.13;;;14.18;84.60
49835;BME280;35729;52.090;13.162;2023-08-31T01:08:46;100059.84;;;14.20;85.08
49835;BME280;35729;52.090;13.162;2023-08-31T01:11:21;100042.59;;;14.12;84.89
49835;BME280;35729;52.090;13.162;2023-08-31T01:14:00;100051.31;;;14.14;84.98
49835;BME280;35729;52.090;13.162;2023-08-31T01:16:34;100055.72;;;14.14;85.14
49835;BME280;35729;52.090;13.162;2023-08-31T01:19:08;100066.34;;;14.12;85.27
49835;BME280;35729;52.090;13.162;2023-08-31T01:21:40;100057.66;;;14.10;85.35
49835;BME280;35729;52.090;13.162;2023-08-31T01:24:13;100063.91;;;14.08;85.65
49835;BME280;35729;52.090;13.162;2023-08-31T01:26:42;100069.28;;;14.06;85.87
49835;BME280;35729;52.090;13.162;2023-08-31T01:29:12;100072.06;;;14.03;86.12
49835;BME280;35729;52.090;13.162;2023-08-31T01:31:44;100066.00;;;14.01;85.85
49835;BME280;35729;52.090;13.162;2023-08-31T01:34:12;100070.44;;;14.00;85.96
49835;BME280;35729;52.090;13.162;2023-08-31T01:36:43;100074.81;;;14.00;86.42
49835;BME280;35729;52.090;13.162;2023-08-31T01:39:20;100078.47;;;13.97;86.64
49835;BME280;35729;52.090;13.162;2023-08-31T01:41:55;100087.38;;;13.95;86.87
49835;BME280;35729;52.090;13.162;2023-08-31T01:44:25;100076.97;;;13.92;86.77
49835;BME280;35729;52.090;13.162;2023-08-31T01:47:03;100075.41;;;13.88;87.43
49835;BME280;35729;52.090;13.162;2023-08-31T01:49:36;100080.03;;;13.82;87.25
49835;BME280;35729;52.090;13.162;2023-08-31T01:52:05;100076.75;;;13.77;87.50
49835;BME280;35729;52.090;13.162;2023-08-31T01:54:36;100074.41;;;13.71;88.07
49835;BME280;35729;52.090;13.162;2023-08-31T01:57:05;100082.44;;;13.68;88.18
49835;BME280;35729;52.090;13.162;2023-08-31T01:59:34;100085.28;;;13.63;88.29
49835;BME280;35729;52.090;13.162;2023-08-31T02:02:03;100096.06;;;13.59;88.89
49835;BME280;35729;52.090;13.162;2023-08-31T02:04:32;100091.81;;;13.55;89.26
49835;BME280;35729;52.090;13.162;2023-08-31T02:07:00;100092.88;;;13.50;89.36
49835;BME280;35729;52.090;13.162;2023-08-31T02:09:29;100099.16;;;13.48;89.02
49835;BME280;35729;52.090;13.162;2023-08-31T02:12:00;100091.31;;;13.46;89.50
49835;BME280;35729;52.090;13.162;2023-08-31T02:14:29;100083.53;;;13.43;89.49
49835;BME280;35729;52.090;13.162;2023-08-31T02:16:58;100082.69;;;13.43;89.46
49835;BME280;35729;52.090;13.162;2023-08-31T02:19:26;100084.53;;;13.41;89.77
49835;BME280;35729;52.090;13.162;2023-08-31T02:21:55;100093.41;;;13.38;90.16
49835;BME280;35729;52.090;13.162;2023-08-31T02:24:24;100111.13;;;13.34;90.18
49835;BME280;35729;52.090;13.162;2023-08-31T02:26:52;100103.34;;;13.31;90.33
49835;BME280;35729;52.090;13.162;2023-08-31T02:29:23;100099.06;;;13.29;90.11
49835;BME280;35729;52.090;13.162;2023-08-31T02:31:51;100099.16;;;13.27;90.79
49835;BME280;35729;52.090;13.162;2023-08-31T02:34:20;100107.13;;;13.26;90.87
49835;BME280;35729;52.090;13.162;2023-08-31T02:36:48;100110.66;;;13.25;90.56
49835;BME280;35729;52.090;13.162;2023-08-31T02:39:17;100118.66;;;13.23;90.49
49835;BME280;35729;52.090;13.162;2023-08-31T02:41:45;100124.81;;;13.22;90.72
49835;BME280;35729;52.090;13.162;2023-08-31T02:44:14;100123.09;;;13.21;90.69
49835;BME280;35729;52.090;13.162;2023-08-31T02:46:45;100124.94;;;13.19;90.91
49835;BME280;35729;52.090;13.162;2023-08-31T02:49:13;100119.75;;;13.17;90.87
49835;BME280;35729;52.090;13.162;2023-08-31T02:51:42;100124.16;;;13.17;90.66
49835;BME280;35729;52.090;13.162;2023-08-31T02:54:10;100125.00;;;13.17;90.56
49835;BME280;35729;52.090;13.162;2023-08-31T02:56:38;100120.66;;;13.16;90.80
49835;BME280;35729;52.090;13.162;2023-08-31T02:59:07;100119.75;;;13.17;90.69
49835;BME280;35729;52.090;13.162;2023-08-31T03:01:35;100120.59;;;13.18;90.86
49835;BME280;35729;52.090;13.162;2023-08-31T03:04:07;100123.19;;;13.19;91.03
49835;BME280;35729;52.090;13.162;2023-08-31T03:06:35;100114.41;;;13.19;90.90
49835;BME280;35729;52.090;13.162;2023-08-31T03:09:04;100118.75;;;13.20;90.98
49835;BME280;35729;52.090;13.162;2023-08-31T03:11:33;100117.84;;;13.21;91.10
49835;BME280;35729;52.090;13.162;2023-08-31T03:14:01;100117.78;;;13.23;90.91
49835;BME280;35729;52.090;13.162;2023-08-31T03:16:29;100121.28;;;13.23;91.31
49835;BME280;35729;52.090;13.162;2023-08-31T03:18:58;100118.66;;;13.23;91.09
49835;BME280;35729;52.090;13.162;2023-08-31T03:21:29;100110.66;;;13.25;91.20
49835;BME280;35729;52.090;13.162;2023-08-31T03:23:57;100110.66;;;13.25;91.26
49835;BME280;35729;52.090;13.162;2023-08-31T03:26:26;100116.78;;;13.25;91.36
49835;BME280;35729;52.090;13.162;2023-08-31T03:28:54;100115.94;;;13.25;91.29
49835;BME280;35729;52.090;13.162;2023-08-31T03:31:23;100126.47;;;13.25;91.25
49835;BME280;35729;52.090;13.162;2023-08-31T03:33:51;100122.13;;;13.24;91.62
49835;BME280;35729;52.090;13.162;2023-08-31T03:36:20;100126.47;;;13.25;91.57
49835;BME280;35729;52.090;13.162;2023-08-31T03:38:52;100122.97;;;13.24;91.66
49835;BME280;35729;52.090;13.162;2023-08-31T03:41:20;100127.38;;;13.24;91.58
49835;BME280;35729;52.090;13.162;2023-08-31T03:43:49;100130.94;;;13.23;91.96
49835;BME280;35729;52.090;13.162;2023-08-31T03:46:18;100139.72;;;13.23;91.79
49835;BME280;35729;52.090;13.162;2023-08-31T03:48:46;100135.44;;;13.20;91.89
49835;BME280;35729;52.090;13.162;2023-08-31T03:51:21;100142.47;;;13.20;91.79
49835;BME280;35729;52.090;13.162;2023-08-31T03:53:52;100149.53;;;13.19;91.68
49835;BME280;35729;52.090;13.162;2023-08-31T03:56:22;100145.09;;;13.20;91.63
49835;BME280;35729;52.090;13.162;2023-08-31T03:58:57;100153.91;;;13.19;91.88
49835;BME280;35729;52.090;13.162;2023-08-31T04:01:25;100160.97;;;13.18;91.87
49835;BME280;35729;52.090;13.162;2023-08-31T04:03:54;100160.16;;;13.16;92.04
49835;BME280;35729;52.090;13.162;2023-08-31T04:06:22;100156.69;;;13.16;91.83
49835;BME280;35729;52.090;13.162;2023-08-31T04:08:53;100157.59;;;13.15;92.04
49835;BME280;35729;52.090;13.162;2023-08-31T04:11:22;100159.41;;;13.14;92.21
49835;BME280;35729;52.090;13.162;2023-08-31T04:13:57;100164.69;;;13.13;92.16
49835;BME280;35729;52.090;13.162;2023-08-31T04:16:32;100168.28;;;13.12;92.24
49835;BME280;35729;52.090;13.162;2023-08-31T04:19:00;100174.41;;;13.12;92.37
49835;BME280;35729;52.090;13.162;2023-08-31T04:21:29;100175.38;;;13.10;92.33
49835;BME280;35729;52.090;13.162;2023-08-31T04:24:00;100169.28;;;13.09;92.37
49835;BME280;35729;52.090;13.162;2023-08-31T04:26:29;100175.38;;;13.10;92.40
49835;BME280;35729;52.090;13.162;2023-08-31T04:28:57;100174.53;;;13.09;92.43
49835;BME280;35729;52.090;13.162;2023-08-31T04:31:26;100170.97;;;13.10;92.34
49835;BME280;35729;52.090;13.162;2023-08-31T04:33:54;100170.97;;;13.10;92.55
49835;BME280;35729;52.090;13.162;2023-08-31T04:36:23;100167.41;;;13.11;92.69
49835;BME280;35729;52.090;13.162;2023-08-31T04:38:51;100164.78;;;13.11;92.68
49835;BME280;35729;52.090;13.162;2023-08-31T04:41:23;100174.41;;;13.12;92.89
49835;BME280;35729;52.090;13.162;2023-08-31T04:43:51;100169.13;;;13.12;92.88
49835;BME280;35729;52.090;13.162;2023-08-31T04:46:19;100178.69;;;13.15;93.24
49835;BME280;35729;52.090;13.162;2023-08-31T04:48:48;100181.38;;;13.13;93.30
49835;BME280;35729;52.090;13.162;2023-08-31T04:51:29;100190.06;;;13.15;93.52
49835;BME280;35729;52.090;13.162;2023-08-31T04:53:58;100190.06;;;13.15;93.67
49835;BME280;35729;52.090;13.162;2023-08-31T04:56:32;100186.66;;;13.13;93.90
49835;BME280;35729;52.090;13.162;2023-08-31T04:59:01;100193.75;;;13.11;94.31
49835;BME280;35729;52.090;13.162;2023-08-31T05:01:29;100195.72;;;13.06;94.21
49835;BME280;35729;52.090;13.162;2023-08-31T05:03:58;100202.81;;;13.04;94.52
49835;BME280;35729;52.090;13.162;2023-08-31T05:06:27;100203.84;;;13.00;94.59
49835;BME280;35729;52.090;13.162;2023-08-31T05:08:56;100202.13;;;12.99;95.62
49835;BME280;35729;52.090;13.162;2023-08-31T05:11:25;100204.00;;;12.97;95.16
49835;BME280;35729;52.090;13.162;2023-08-31T05:13:56;100202.28;;;12.96;95.40
49835;BME280;35729;52.090;13.162;2023-08-31T05:16:24;100206.66;;;12.95;95.69
49835;BME280;35729;52.090;13.162;2023-08-31T05:18:52;100210.19;;;12.96;95.97
49835;BME280;35729;52.090;13.162;2023-08-31T05:21:21;100205.81;;;12.95;95.83
49835;BME280;35729;52.090;13.162;2023-08-31T05:23:49;100217.16;;;12.97;95.90
49835;BME280;35729;52.090;13.162;2023-08-31T05:26:18;100212.75;;;12.97;96.53
49835;BME280;35729;52.090;13.162;2023-08-31T05:28:46;100216.25;;;12.98;96.03
49835;BME280;35729;52.090;13.162;2023-08-31T05:31:17;100225.84;;;12.99;95.93
49835;BME280;35729;52.090;13.162;2023-08-31T05:33:46;100231.06;;;13.00;96.46
49835;BME280;35729;52.090;13.162;2023-08-31T05:36:14;100231.78;;;13.04;96.25
49835;BME280;35729;52.090;13.162;2023-08-31T05:38:43;100237.91;;;13.04;96.40
49835;BME280;35729;52.090;13.162;2023-08-31T05:41:11;100239.56;;;13.07;96.50
49835;BME280;35729;52.090;13.162;2023-08-31T05:43:39;100239.44;;;13.10;97.03
49835;BME280;35729;52.090;13.162;2023-08-31T05:46:09;100241.16;;;13.11;96.79
49835;BME280;35729;52.090;13.162;2023-08-31T05:48:40;100252.34;;;13.16;96.94
49835;BME280;35729;52.090;13.162;2023-08-31T05:51:08;100252.25;;;13.19;96.83
49835;BME280;35729;52.090;13.162;2023-08-31T05:53:36;100252.09;;;13.23;96.90
49835;BME280;35729;52.090;13.162;2023-08-31T05:56:05;100256.28;;;13.28;97.05
49835;BME280;35729;52.090;13.162;2023-08-31T05:58:35;100255.16;;;13.34;97.33
49835;BME280;35729;52.090;13.162;2023-08-31T06:01:04;100258.59;;;13.36;97.00
49835;BME280;35729;52.090;13.162;2023-08-31T06:03:33;100255.00;;;13.39;97.13
49835;BME280;35729;52.090;13.162;2023-08-31T06:06:04;100259.16;;;13.44;96.54
49835;BME280;35729;52.090;13.162;2023-08-31T06:08:33;100258.06;;;13.50;96.95
49835;BME280;35729;52.090;13.162;2023-08-31T06:11:01;100259.56;;;13.56;96.76
49835;BME280;35729;52.090;13.162;2023-08-31T06:13:30;100262.81;;;13.62;96.19
49835;BME280;35729;52.090;13.162;2023-08-31T06:15:58;100267.88;;;13.67;96.01
49835;BME280;35729;52.090;13.162;2023-08-31T06:18:27;100267.78;;;13.70;95.66
49835;BME280;35729;52.090;13.162;2023-08-31T06:20:55;100274.63;;;13.74;95.55
49835;BME280;35729;52.090;13.162;2023-08-31T06:23:26;100270.06;;;13.78;95.46
49835;BME280;35729;52.090;13.162;2023-08-31T06:25:55;100269.09;;;13.80;95.34
49835;BME280;35729;52.090;13.162;2023-08-31T06:28:23;100275.09;;;13.84;95.04
49835;BME280;35729;52.090;13.162;2023-08-31T06:30:51;100276.84;;;13.83;94.55
49835;BME280;35729;52.090;13.162;2023-08-31T06:33:20;100284.72;;;13.85;94.61
49835;BME280;35729;52.090;13.162;2023-08-31T06:35:48;100280.38;;;13.84;93.89
49835;BME280;35729;52.090;13.162;2023-08-31T06:38:17;100280.41;;;13.82;93.64
49835;BME280;35729;52.090;13.162;2023-08-31T06:40:49;100286.56;;;13.83;93.71
49835;BME280;35729;52.090;13.162;2023-08-31T06:43:20;100287.41;;;13.83;93.92
49835;BME280;35729;52.090;13.162;2023-08-31T06:45:48;100284.72;;;13.85;93.66
49835;BME280;35729;52.090;13.162;2023-08-31T06:48:17;100291.66;;;13.88;93.71
49835;BME280;35729;52.090;13.162;2023-08-31T06:50:46;100295.97;;;13.89;92.99
49835;BME280;35729;52.090;13.162;2023-08-31T06:53:15;100292.50;;;13.88;92.64
49835;BME280;35729;52.090;13.162;2023-08-31T06:55:43;100298.56;;;13.90;92.25
49835;BME280;35729;52.090;13.162;2023-08-31T06:58:15;100296.69;;;13.92;92.58
49835;BME280;35729;52.090;13.162;2023-08-31T07:00:43;100303.50;;;13.98;92.37
49835;BME280;35729;52.090;13.162;2023-08-31T07:03:12;100306.81;;;14.03;92.25
49835;BME280;35729;52.090;13.162;2023-08-31T07:05:42;100301.31;;;14.08;91.52
49835;BME280;35729;52.090;13.162;2023-08-31T07:08:11;100309.03;;;14.12;91.36
49835;BME280;35729;52.090;13.162;2023-08-31T07:10:39;100307.19;;;14.14;90.77
49835;BME280;35729;52.090;13.162;2023-08-31T07:13:08;100307.97;;;14.16;90.44
49835;BME280;35729;52.090;13.162;2023-08-31T07:15:39;100315.03;;;14.16;89.83
49835;BME280;35729;52.090;13.162;2023-08-31T07:18:08;100317.75;;;14.14;89.84
49835;BME280;35729;52.090;13.162;2023-08-31T07:20:36;100316.88;;;14.14;89.42
49835;BME280;35729;52.090;13.162;2023-08-31T07:23:05;100314.31;;;14.12;88.82
49835;BME280;35729;52.090;13.162;2023-08-31T07:25:33;100321.38;;;14.12;87.89
49835;BME280;35729;52.090;13.162;2023-08-31T07:28:02;100319.59;;;14.12;88.22
49835;BME280;35729;52.090;13.162;2023-08-31T07:30:31;100334.50;;;14.13;88.37
49835;BME280;35729;52.090;13.162;2023-08-31T07:33:02;100339.63;;;14.16;88.23
49835;BME280;35729;52.090;13.162;2023-08-31T07:35:31;100325.50;;;14.17;88.08
49835;BME280;35729;52.090;13.162;2023-08-31T07:37:59;100338.59;;;14.21;87.50
49835;BME280;35729;52.090;13.162;2023-08-31T07:40:28;100335.88;;;14.22;87.70
49835;BME280;35729;52.090;13.162;2023-08-31T07:42:56;100333.88;;;14.27;87.26
49835;BME280;35729;52.090;13.162;2023-08-31T07:45:25;100323.91;;;14.34;87.36
49835;BME280;35729;52.090;13.162;2023-08-31T07:47:53;100327.84;;;14.44;86.83
49835;BME280;35729;52.090;13.162;2023-08-31T07:50:24;100333.66;;;14.53;86.46
49835;BME280;35729;52.090;13.162;2023-08-31T07:52:53;100335.88;;;14.62;85.73
49835;BME280;35729;52.090;13.162;2023-08-31T07:55:21;100347.00;;;14.70;85.35
49835;BME280;35729;52.090;13.162;2023-08-31T07:57:49;100341.44;;;14.76;82.45
49835;BME280;35729;52.090;13.162;2023-08-31T08:00:19;100336.66;;;14.85;83.24
49835;BME280;35729;52.090;13.162;2023-08-31T08:02:47;100344.28;;;14.91;81.57
49835;BME280;35729;52.090;13.162;2023-08-31T08:05:16;100337.94;;;14.95;80.33
49835;BME280;35729;52.090;13.162;2023-08-31T08:07:47;100346.53;;;15.00;79.63
49835;BME280;35729;52.090;13.162;2023-08-31T08:10:15;100350.72;;;15.04;79.26
49835;BME280;35729;52.090;13.162;2023-08-31T08:12:44;100351.28;;;15.11;77.71
49835;BME280;35729;52.090;13.162;2023-08-31T08:15:12;100357.94;;;15.20;75.46
49835;BME280;35729;52.090;13.162;2023-08-31T08:17:41;100355.78;;;15.28;76.50
49835;BME280;35729;52.090;13.162;2023-08-31T08:20:11;100344.91;;;15.34;75.59
49835;BME280;35729;52.090;13.162;2023-08-31T08:22:39;100352.69;;;15.37;71.98
49835;BME280;35729;52.090;13.162;2023-08-31T08:25:11;100357.28;;;15.34;70.04
49835;BME280;35729;52.090;13.162;2023-08-31T08:27:40;100366.84;;;15.36;72.57
49835;BME280;35729;52.090;13.162;2023-08-31T08:30:08;100362.56;;;15.34;73.24
49835;BME280;35729;52.090;13.162;2023-08-31T08:32:37;100368.84;;;15.31;72.82
49835;BME280;35729;52.090;13.162;2023-08-31T08:35:06;100348.72;;;15.28;73.39
49835;BME280;35729;52.090;13.162;2023-08-31T08:37:35;100370.66;;;15.30;72.47
49835;BME280;35729;52.090;13.162;2023-08-31T08:40:04;100369.47;;;15.36;73.62
49835;BME280;35729;52.090;13.162;2023-08-31T08:42:39;100377.69;;;15.49;72.80
49835;BME280;35729;52.090;13.162;2023-08-31T08:45:13;100373.72;;;15.58;70.44
49835;BME280;35729;52.090;13.162;2023-08-31T08:47:43;100371.66;;;15.64;70.29
49835;BME280;35729;52.090;13.162;2023-08-31T08:50:12;100378.59;;;15.67;70.14
49835;BME280;35729;52.090;13.162;2023-08-31T08:52:42;100393.38;;;15.71;69.99
49835;BME280;35729;52.090;13.162;2023-08-31T08:55:10;100378.13;;;15.76;69.18
49835;BME280;35729;52.090;13.162;2023-08-31T08:57:42;100380.34;;;15.86;69.42
49835;BME280;35729;52.090;13.162;2023-08-31T09:00:12;100380.03;;;15.92;70.72
49835;BME280;35729;52.090;13.162;2023-08-31T09:02:41;100379.03;;;15.94;70.30
49835;BME280;35729;52.090;13.162;2023-08-31T09:05:10;100370.88;;;15.99;69.79
49835;BME280;35729;52.090;13.162;2023-08-31T09:08:03;100374.94;;;16.06;69.60
49835;BME280;35729;52.090;13.162;2023-08-31T09:10:36;100390.72;;;16.08;64.29
49835;BME280;35729;52.090;13.162;2023-08-31T09:13:08;100381.47;;;16.17;67.85
49835;BME280;35729;52.090;13.162;2023-08-31T09:15:39;100371.50;;;16.22;67.64
49835;BME280;35729;52.090;13.162;2023-08-31T09:18:06;100378.03;;;16.32;68.64
49835;BME280;35729;52.090;13.162;2023-08-31T09:20:44;100369.94;;;16.35;64.26
49835;BME280;35729;52.090;13.162;2023-08-31T09:23:13;100377.63;;;16.40;66.70
49835;BME280;35729;52.090;13.162;2023-08-31T09:25:42;100384.72;;;16.39;66.66
49835;BME280;35729;52.090;13.162;2023-08-31T09:28:16;100388.13;;;16.41;65.35
49835;BME280;35729;52.090;13.162;2023-08-31T09:30:46;100383.63;;;16.43;66.64
49835;BME280;35729;52.090;13.162;2023-08-31T09:33:16;100386.09;;;16.47;66.42
49835;BME280;35729;52.090;13.162;2023-08-31T09:35:49;100378.22;;;16.45;64.24
49835;BME280;35729;52.090;13.162;2023-08-31T09:38:19;100388.75;;;16.47;65.26
49835;BME280;35729;52.090;13.162;2023-08-31T09:40:47;100373.50;;;16.52;65.42
49835;BME280;35729;52.090;13.162;2023-08-31T09:43:23;100371.28;;;16.60;62.48
49835;BME280;35729;52.090;13.162;2023-08-31T09:45:52;100373.97;;;16.76;63.34
49835;BME280;35729;52.090;13.162;2023-08-31T09:48:22;100370.59;;;16.90;62.99
49835;BME280;35729;52.090;13.162;2023-08-31T09:50:51;100362.00;;;17.02;63.73
49835;BME280;35729;52.090;13.162;2023-08-31T09:53:21;100358.16;;;17.08;60.53
49835;BME280;35729;52.090;13.162;2023-08-31T09:55:57;100356.19;;;17.12;59.58
49835;BME280;35729;52.090;13.162;2023-08-31T09:58:28;100354.38;;;17.12;61.22
49835;BME280;35729;52.090;13.162;2023-08-31T10:00:57;100356.88;;;17.15;61.39
49835;BME280;35729;52.090;13.162;2023-08-31T10:03:26;100365.44;;;17.20;60.77
49835;BME280;35729;52.090;13.162;2023-08-31T10:05:55;100371.25;;;17.27;61.32
49835;BME280;35729;52.090;13.162;2023-08-31T10:08:25;100351.75;;;17.28;60.35
49835;BME280;35729;52.090;13.162;2023-08-31T10:10:58;100371.66;;;17.19;59.41
49835;BME280;35729;52.090;13.162;2023-08-31T10:13:31;100374.75;;;17.12;61.18
49835;BME280;35729;52.090;13.162;2023-08-31T10:16:04;100360.03;;;17.06;60.94
49835;BME280;35729;52.090;13.162;2023-08-31T10:18:41;100347.97;;;17.00;61.85
49835;BME280;35729;52.090;13.162;2023-08-31T10:21:10;100349.78;;;17.00;62.38
49835;BME280;35729;52.090;13.162;2023-08-31T10:23:44;100354.13;;;17.01;62.02
49835;BME280;35729;52.090;13.162;2023-08-31T10:26:23;100345.56;;;16.96;61.00
49835;BME280;35729;52.090;13.162;2023-08-31T10:28:54;100367.06;;;16.89;60.67
49835;BME280;35729;52.090;13.162;2023-08-31T10:31:23;100379.97;;;16.80;59.91
49835;BME280;35729;52.090;13.162;2023-08-31T10:33:56;100361.81;;;16.72;60.25
49835;BME280;35729;52.090;13.162;2023-08-31T10:36:37;100352.88;;;16.74;60.35
49835;BME280;35729;52.090;13.162;2023-08-31T10:39:11;100356.75;;;16.85;61.30
49835;BME280;35729;52.090;13.162;2023-08-31T10:41:41;100362.50;;;16.93;55.12
49835;BME280;35729;52.090;13.162;2023-08-31T10:44:22;100349.69;;;17.01;54.54
49835;BME280;35729;52.090;13.162;2023-08-31T10:46:52;100347.31;;;17.13;56.16
49835;BME280;35729;52.090;13.162;2023-08-31T10:49:22;100345.75;;;17.24;55.93
49835;BME280;35729;52.090;13.162;2023-08-31T10:51:55;100346.78;;;17.38;54.08
49835;BME280;35729;52.090;13.162;2023-08-31T10:54:25;100345.22;;;17.50;52.08
49835;BME280;35729;52.090;13.162;2023-08-31T10:57:01;100349.81;;;17.62;54.79
49835;BME280;35729;52.090;13.162;2023-08-31T10:59:44;100349.13;;;17.74;51.31
49835;BME280;35729;52.090;13.162;2023-08-31T11:02:29;100350.56;;;17.80;49.89
49835;BME280;35729;52.090;13.162;2023-08-31T11:05:05;100347.63;;;17.85;49.46
49835;BME280;35729;52.090;13.162;2023-08-31T11:07:34;100340.47;;;17.87;51.05
49835;BME280;35729;52.090;13.162;2023-08-31T11:10:14;100330.34;;;17.94;50.07
49835;BME280;35729;52.090;13.162;2023-08-31T11:12:44;100332.34;;;18.04;51.63
49835;BME280;35729;52.090;13.162;2023-08-31T11:15:16;100331.91;;;18.12;49.99
49835;BME280;35729;52.090;13.162;2023-08-31T11:17:46;100329.75;;;18.19;50.79
49835;BME280;35729;52.090;13.162;2023-08-31T11:20:15;100334.75;;;18.23;49.48
49835;BME280;35729;52.090;13.162;2023-08-31T11:22:46;100331.72;;;18.30;50.71
49835;BME280;35729;52.090;13.162;2023-08-31T11:25:16;100336.78;;;18.34;51.24
49835;BME280;35729;52.090;13.162;2023-08-31T11:27:53;100348.16;;;18.36;49.33
49835;BME280;35729;52.090;13.162;2023-08-31T11:30:24;100354.59;;;18.32;48.99
49835;BME280;35729;52.090;13.162;2023-08-31T11:32:53;100351.88;;;18.34;51.57
49835;BME280;35729;52.090;13.162;2023-08-31T11:35:23;100354.00;;;18.27;50.89
49835;BME280;35729;52.090;13.162;2023-08-31T11:37:55;100354.38;;;18.21;52.91
49835;BME280;35729;52.090;13.162;2023-08-31T11:40:26;100354.16;;;18.10;53.16
49835;BME280;35729;52.090;13.162;2023-08-31T11:42:54;100369.97;;;17.97;53.66
49835;BME280;35729;52.090;13.162;2023-08-31T11:45:27;100374.28;;;17.83;54.26
49835;BME280;35729;52.090;13.162;2023-08-31T11:47:56;100368.78;;;17.70;55.48
49835;BME280;35729;52.090;13.162;2023-08-31T11:50:25;100370.13;;;17.63;56.24
49835;BME280;35729;52.090;13.162;2023-08-31T11:52:54;100371.41;;;17.56;56.76
49835;BME280;35729;52.090;13.162;2023-08-31T11:55:23;100368.84;;;17.54;57.22
49835;BME280;35729;52.090;13.162;2023-08-31T11:57:52;100370.56;;;17.55;57.53
49835;BME280;35729;52.090;13.162;2023-08-31T12:00:24;100361.38;;;17.61;58.36
49835;BME280;35729;52.090;13.162;2023-08-31T12:02:57;100370.84;;;17.65;57.06
49835;BME280;35729;52.090;13.162;2023-08-31T12:05:25;100372.81;;;17.78;57.12
49835;BME280;35729;52.090;13.162;2023-08-31T12:07:54;100396.19;;;17.87;56.75
49835;BME280;35729;52.090;13.162;2023-08-31T12:10:24;100386.16;;;17.92;54.20
49835;BME280;35729;52.090;13.162;2023-08-31T12:12:52;100395.13;;;18.05;55.41
49835;BME280;35729;52.090;13.162;2023-08-31T12:15:33;100388.16;;;18.19;53.24
49835;BME280;35729;52.090;13.162;2023-08-31T12:18:08;100385.97;;;18.26;53.62
49835;BME280;35729;52.090;13.162;2023-08-31T12:20:43;100391.28;;;18.26;50.03
49835;BME280;35729;52.090;13.162;2023-08-31T12:23:12;100393.16;;;18.23;53.11
49835;BME280;35729;52.090;13.162;2023-08-31T12:25:45;100388.06;;;18.20;52.79
49835;BME280;35729;52.090;13.162;2023-08-31T12:28:14;100384.91;;;18.14;51.91
49835;BME280;35729;52.090;13.162;2023-08-31T12:30:48;100379.28;;;18.04;52.72
49835;BME280;35729;52.090;13.162;2023-08-31T12:33:18;100377.19;;;17.95;53.94
49835;BME280;35729;52.090;13.162;2023-08-31T12:35:47;100385.72;;;17.84;54.60
49835;BME280;35729;52.090;13.162;2023-08-31T12:38:16;100387.97;;;17.75;54.96
49835;BME280;35729;52.090;13.162;2023-08-31T12:40:45;100408.00;;;17.65;54.65
49835;BME280;35729;52.090;13.162;2023-08-31T12:43:13;100414.78;;;17.55;55.30
49835;BME280;35729;52.090;13.162;2023-08-31T12:45:44;100439.75;;;17.35;57.75
49835;BME280;35729;52.090;13.162;2023-08-31T12:48:13;100439.19;;;16.96;60.94
49835;BME280;35729;52.090;13.162;2023-08-31T12:50:41;100441.25;;;16.38;64.45
49835;BME280;35729;52.090;13.162;2023-08-31T12:53:10;100437.53;;;15.88;65.92
49835;BME280;35729;52.090;13.162;2023-08-31T12:55:38;100418.97;;;15.32;70.02